createdAt,value
2023-02-08T00:03:12.287Z,-3.50
2023-02-08T00:07:14.308Z,-3.70
2023-02-08T00:11:16.144Z,-3.90
2023-02-08T00:15:18.701Z,-4.00
2023-02-08T00:19:20.600Z,-4.00
2023-02-08T00:23:22.507Z,-4.00
2023-02-08T00:27:24.362Z,-4.10
2023-02-08T00:31:26.315Z,-4.10
2023-02-08T00:35:28.806Z,-4.20
2023-02-08T00:39:30.752Z,-4.30
2023-02-08T00:43:32.798Z,-4.20
2023-02-08T00:47:34.669Z,-4.30
2023-02-08T00:51:36.591Z,-4.40
2023-02-08T00:55:38.367Z,-4.50
2023-02-08T00:59:40.196Z,-4.50
2023-02-08T01:03:42.664Z,-4.50
2023-02-08T01:07:44.477Z,-4.50
2023-02-08T01:11:46.314Z,-4.50
2023-02-08T01:15:48.182Z,-4.60
2023-02-08T01:19:50.015Z,-4.60
2023-02-08T01:23:52.035Z,-4.60
2023-02-08T01:27:57.335Z,-4.60
2023-02-08T01:32:01.982Z,-4.60
2023-02-08T01:36:04.272Z,-4.70
2023-02-08T01:40:06.896Z,-4.80
2023-02-08T01:45:06.042Z,-4.80
2023-02-08T01:49:17.519Z,-4.70
2023-02-08T01:53:19.271Z,-4.70
2023-02-08T01:57:21.607Z,-4.80
2023-02-08T02:01:23.994Z,-4.80
2023-02-08T02:05:30.116Z,-4.80
2023-02-08T02:09:59.802Z,-4.80
2023-02-08T02:14:01.809Z,-4.80
2023-02-08T02:18:05.688Z,-4.80
2023-02-08T02:22:32.521Z,-4.80
2023-02-08T02:27:01.744Z,-4.90
2023-02-08T02:31:44.026Z,-4.90
2023-02-08T02:36:08.115Z,-4.90
2023-02-08T02:40:28.725Z,-5.00
2023-02-08T02:45:01.580Z,-5.10
2023-02-08T02:49:27.373Z,-5.10
2023-02-08T02:53:53.400Z,-5.00
2023-02-08T02:57:57.436Z,-5.10
2023-02-08T03:01:59.332Z,-5.10
2023-02-08T03:06:07.931Z,-5.10
2023-02-08T03:10:44.683Z,-5.10
2023-02-08T03:15:07.105Z,-5.10
2023-02-08T03:19:20.338Z,-5.10
2023-02-08T03:23:35.449Z,-5.20
2023-02-08T03:27:49.494Z,-5.10
2023-02-08T03:32:00.768Z,-5.20
2023-02-08T03:36:10.884Z,-5.20
2023-02-08T03:40:27.253Z,-5.10
2023-02-08T03:44:52.599Z,-5.20
2023-02-08T03:49:10.620Z,-5.10
2023-02-08T03:53:12.686Z,-5.20
2023-02-08T03:57:26.484Z,-5.20
2023-02-08T04:01:44.320Z,-5.20
2023-02-08T04:05:46.838Z,-5.20
2023-02-08T04:09:48.847Z,-5.20
2023-02-08T04:13:50.618Z,-5.20
2023-02-08T04:17:58.432Z,-5.20
2023-02-08T04:22:00.192Z,-5.20
2023-02-08T04:26:04.531Z,-5.30
2023-02-08T04:30:06.995Z,-5.20
2023-02-08T04:34:09.005Z,-5.30
2023-02-08T04:38:10.928Z,-5.30
2023-02-08T04:42:12.870Z,-5.30
2023-02-08T04:46:15.271Z,-5.40
2023-02-08T04:50:17.492Z,-5.40
2023-02-08T04:54:19.496Z,-5.30
2023-02-08T04:58:21.412Z,-5.40
2023-02-08T05:02:23.537Z,-5.40
2023-02-08T05:06:25.675Z,-5.40
2023-02-08T05:10:30.794Z,-5.40
2023-02-08T05:14:32.685Z,-5.50
2023-02-08T05:18:39.457Z,-5.50
2023-02-08T05:22:41.570Z,-5.50
2023-02-08T05:26:43.424Z,-5.40
2023-02-08T05:30:46.437Z,-5.40
2023-02-08T05:35:28.489Z,-5.40
2023-02-08T05:39:32.773Z,-5.40
2023-02-08T05:43:38.042Z,-5.40
2023-02-08T05:47:39.888Z,-5.40
2023-02-08T05:51:41.936Z,-5.40
2023-02-08T05:55:48.620Z,-5.40
2023-02-08T05:59:56.169Z,-5.40
2023-02-08T06:04:01.552Z,-5.40
2023-02-08T06:08:06.207Z,-5.40
2023-02-08T06:12:20.217Z,-5.40
2023-02-08T06:16:27.546Z,-5.50
2023-02-08T06:20:29.536Z,-5.40
2023-02-08T06:24:34.040Z,-5.30
2023-02-08T06:28:38.480Z,-5.30
2023-02-08T06:32:40.426Z,-5.30
2023-02-08T06:36:44.657Z,-5.30
2023-02-08T06:40:49.924Z,-5.30
2023-02-08T06:44:55.240Z,-5.40
2023-02-08T06:48:59.202Z,-5.40
2023-02-08T06:53:01.208Z,-5.40
2023-02-08T06:57:03.234Z,-5.40
2023-02-08T07:01:05.416Z,-5.30
2023-02-08T07:05:07.786Z,-5.20
2023-02-08T07:09:11.920Z,-5.10
2023-02-08T07:13:13.700Z,-5.00
2023-02-08T07:17:15.663Z,-4.90
2023-02-08T07:21:17.602Z,-4.70
2023-02-08T07:25:22.355Z,-4.30
2023-02-08T07:29:24.119Z,-4.00
2023-02-08T07:33:26.264Z,-3.70
2023-02-08T07:37:32.991Z,-3.40
2023-02-08T07:41:34.849Z,-3.10
2023-02-08T07:45:39.804Z,-2.80
2023-02-08T07:49:41.680Z,-2.60
2023-02-08T07:53:43.605Z,-2.20
2023-02-08T07:57:46.463Z,-1.90
2023-02-08T08:01:48.391Z,-1.70
2023-02-08T08:05:53.518Z,-1.50
2023-02-08T08:09:56.601Z,-1.50
2023-02-08T08:13:58.564Z,-1.20
2023-02-08T08:18:01.614Z,-0.90
2023-02-08T08:22:05.858Z,-0.70
2023-02-08T08:26:16.632Z,-0.40
2023-02-08T08:30:18.435Z,-0.30
2023-02-08T08:34:20.361Z,-0.40
2023-02-08T08:38:24.940Z,-0.20
2023-02-08T08:42:27.070Z,-0.10
2023-02-08T08:46:32.145Z,-0.10
2023-02-08T08:50:34.283Z,0.10
2023-02-08T08:54:36.499Z,0.10
2023-02-08T08:58:45.716Z,0.10
2023-02-08T09:02:47.628Z,0.00
2023-02-08T09:06:50.564Z,0.40
2023-02-08T09:10:52.468Z,0.30
2023-02-08T09:14:54.370Z,0.30
2023-02-08T09:18:56.232Z,0.50
2023-02-08T09:22:58.068Z,0.60
2023-02-08T09:26:59.930Z,0.80
2023-02-08T09:31:11.816Z,0.70
2023-02-08T09:35:14.852Z,0.70
2023-02-08T09:39:23.048Z,0.70
2023-02-08T09:43:50.266Z,0.50
2023-02-08T09:48:04.273Z,0.60
2023-02-08T09:52:13.929Z,0.70
2023-02-08T09:56:19.128Z,0.80
2023-02-08T10:00:27.987Z,0.90
2023-02-08T10:04:48.466Z,1.00
2023-02-08T10:08:51.535Z,0.90
2023-02-08T10:13:41.128Z,1.00
2023-02-08T10:18:19.038Z,1.00
2023-02-08T10:22:56.712Z,0.90
2023-02-08T10:27:24.685Z,0.70
2023-02-08T10:32:15.836Z,0.70
2023-02-08T10:36:21.416Z,0.80
2023-02-08T10:40:38.849Z,0.90
2023-02-08T10:45:25.425Z,0.80
2023-02-08T10:49:50.694Z,0.80
2023-02-08T10:53:52.806Z,0.80
2023-02-08T10:58:07.217Z,0.80
2023-02-08T11:02:42.817Z,0.90
2023-02-08T11:06:45.568Z,1.00
2023-02-08T11:10:57.163Z,1.00
2023-02-08T11:14:59.325Z,1.10
2023-02-08T11:19:02.248Z,1.10
2023-02-08T11:23:06.256Z,1.20
2023-02-08T11:27:20.733Z,1.30
2023-02-08T11:31:22.899Z,1.40
2023-02-08T11:35:26.046Z,1.50
2023-02-08T11:40:01.715Z,1.50
2023-02-08T11:44:06.016Z,1.60
2023-02-08T11:48:40.741Z,1.70
2023-02-08T11:52:43.056Z,1.70
2023-02-08T11:56:44.886Z,1.90
2023-02-08T12:01:23.470Z,2.00
2023-02-08T12:05:42.143Z,2.00
2023-02-08T12:10:03.548Z,2.00
2023-02-08T12:14:41.431Z,2.00
2023-02-08T12:19:32.442Z,2.00
2023-02-08T12:24:36.544Z,2.10
2023-02-08T12:29:45.614Z,2.10
2023-02-08T12:34:21.130Z,2.10
2023-02-08T12:39:18.600Z,2.10
2023-02-08T12:43:53.614Z,2.10
2023-02-08T12:48:20.698Z,2.10
2023-02-08T12:52:39.286Z,2.20
2023-02-08T12:56:53.571Z,2.10
2023-02-08T13:01:12.014Z,2.10
2023-02-08T13:05:20.288Z,2.10
2023-02-08T13:09:35.770Z,2.20
2023-02-08T13:13:38.941Z,2.10
2023-02-08T13:18:20.930Z,2.10
2023-02-08T13:22:26.056Z,2.10
2023-02-08T13:26:35.135Z,1.90
2023-02-08T13:30:43.199Z,1.90
2023-02-08T13:35:15.930Z,1.90
2023-02-08T13:39:43.574Z,1.80
2023-02-08T13:43:56.384Z,1.80
2023-02-08T13:48:05.692Z,1.90
2023-02-08T13:57:04.416Z,1.90
2023-02-08T14:01:36.512Z,1.80
2023-02-08T14:06:45.237Z,1.90
2023-02-08T14:15:37.774Z,2.00
2023-02-08T14:20:09.132Z,1.90
2023-02-08T14:25:11.691Z,2.00
2023-02-08T14:29:29.075Z,1.90
2023-02-08T14:34:05.044Z,1.90
2023-02-08T14:39:20.264Z,1.90
2023-02-08T14:43:49.907Z,1.90
2023-02-08T14:48:31.260Z,1.90
2023-02-08T14:53:05.836Z,1.90
2023-02-08T14:57:25.775Z,1.80
2023-02-08T15:01:28.195Z,1.80
2023-02-08T15:05:53.484Z,1.60
2023-02-08T15:10:02.653Z,1.60
2023-02-08T15:14:36.807Z,1.50
2023-02-08T15:18:50.400Z,1.40
2023-02-08T15:23:35.903Z,1.40
2023-02-08T15:27:38.081Z,1.30
2023-02-08T15:32:38.652Z,1.20
2023-02-08T15:37:10.096Z,1.20
2023-02-08T15:41:34.450Z,1.10
2023-02-08T15:45:53.823Z,1.10
2023-02-08T15:50:19.301Z,1.00
2023-02-08T15:54:23.965Z,1.00
2023-02-08T15:58:36.481Z,0.90
2023-02-08T16:02:43.663Z,0.80
2023-02-08T16:11:24.698Z,0.80
2023-02-08T16:15:35.384Z,0.70
2023-02-08T16:19:48.156Z,0.60
2023-02-08T16:24:34.760Z,0.60
2023-02-08T16:34:08.824Z,0.40
2023-02-08T16:38:17.826Z,0.30
2023-02-08T16:42:40.552Z,0.30
2023-02-08T16:46:47.973Z,0.20
2023-02-08T16:50:52.027Z,0.10
2023-02-08T16:54:53.876Z,0.10
2023-02-08T16:58:55.792Z,0.00
2023-02-08T17:03:04.924Z,-0.10
2023-02-08T17:07:11.564Z,-0.10
2023-02-08T17:11:27.683Z,-0.10
2023-02-08T17:15:29.746Z,-0.20
2023-02-08T17:19:31.798Z,-0.20
2023-02-08T17:23:33.696Z,-0.20
2023-02-08T17:27:49.130Z,-0.30
2023-02-08T17:31:55.273Z,-0.30
2023-02-08T17:36:09.253Z,-0.40
2023-02-08T17:40:13.235Z,-0.30
2023-02-08T17:44:20.739Z,-0.40
2023-02-08T17:48:25.332Z,-0.40
2023-02-08T17:52:30.704Z,-0.50
2023-02-08T17:56:40.911Z,-0.50
2023-02-08T18:00:51.074Z,-0.50
2023-02-08T18:05:26.496Z,-0.60
2023-02-08T18:14:12.029Z,-0.80
2023-02-08T18:18:32.688Z,-0.80
2023-02-08T18:22:38.304Z,-0.90
2023-02-08T18:26:48.882Z,-0.90
2023-02-08T18:31:43.519Z,-1.00
2023-02-08T18:36:19.031Z,-1.00
2023-02-08T18:40:22.862Z,-1.10
2023-02-08T18:44:32.182Z,-1.00
2023-02-08T18:48:57.832Z,-1.00
2023-02-08T18:58:30.039Z,-1.10
2023-02-08T19:03:07.557Z,-1.10
2023-02-08T19:07:25.616Z,-1.20
2023-02-08T19:11:39.357Z,-1.30
2023-02-08T19:15:52.716Z,-1.40
2023-02-08T19:21:05.770Z,-1.40
2023-02-08T19:25:59.422Z,-1.50
2023-02-08T19:57:07.046Z,-1.60
2023-02-08T20:01:42.733Z,-1.60
2023-02-08T20:11:08.489Z,-1.60
2023-02-08T20:16:41.064Z,-1.60
2023-02-08T20:21:09.239Z,-1.60
2023-02-08T20:29:57.508Z,-1.60
2023-02-08T20:34:47.602Z,-1.60
2023-02-08T20:38:59.773Z,-1.60
2023-02-08T20:43:42.464Z,-1.60
2023-02-08T20:47:46.769Z,-1.50
2023-02-08T20:51:52.963Z,-1.40
2023-02-08T20:55:56.066Z,-1.40
2023-02-08T20:59:58.128Z,-1.10
2023-02-08T21:04:00.320Z,-1.00
2023-02-08T21:08:02.308Z,-0.80
2023-02-08T21:12:05.045Z,-0.60
2023-02-08T21:16:07.768Z,-0.60
2023-02-08T21:20:15.219Z,-0.50
2023-02-08T21:24:22.536Z,-0.40
2023-02-08T21:28:24.516Z,-0.30
2023-02-08T21:32:29.988Z,-0.30
2023-02-08T21:36:34.784Z,-0.30
2023-02-08T21:40:36.865Z,-0.30
2023-02-08T21:44:38.750Z,-0.30
2023-02-08T21:48:59.101Z,-0.30
2023-02-08T21:53:19.772Z,-0.30
2023-02-08T21:57:24.727Z,-0.20
2023-02-08T22:01:26.956Z,-0.30
2023-02-08T22:05:29.217Z,-0.20
2023-02-08T22:09:31.184Z,-0.30
2023-02-08T22:13:33.792Z,-0.30
2023-02-08T22:17:35.573Z,-0.30
2023-02-08T22:21:37.662Z,-0.40
2023-02-08T22:25:39.524Z,-0.40
2023-02-08T22:29:41.331Z,-0.40
2023-02-08T22:33:43.354Z,-0.40
2023-02-08T22:37:45.275Z,-0.40
2023-02-08T22:41:47.044Z,-0.40
2023-02-08T22:45:59.949Z,-0.40
2023-02-08T22:50:02.411Z,-0.40
2023-02-08T22:54:04.376Z,-0.40
2023-02-08T22:58:06.326Z,-0.40
2023-02-08T23:02:08.306Z,-0.40
2023-02-08T23:06:12.171Z,-0.40
2023-02-08T23:10:14.232Z,-0.40
2023-02-08T23:14:16.118Z,-0.40
2023-02-08T23:18:17.902Z,-0.40
2023-02-08T23:22:19.714Z,-0.40
2023-02-08T23:26:21.972Z,-0.40
2023-02-08T23:30:23.821Z,-0.50
2023-02-08T23:34:25.616Z,-0.50
2023-02-08T23:38:27.623Z,-0.50
2023-02-08T23:42:29.498Z,-0.50
2023-02-08T23:46:31.922Z,-0.60
2023-02-08T23:50:34.034Z,-0.60
2023-02-08T23:54:37.003Z,-0.70
2023-02-08T23:58:38.952Z,-0.70
